York, NE

5:31 AM CST on December 29, 2014 (GMT -0600)
SLS - SW York, NE | Change Station
CLOSE
Current Station
Personal Weather Station
Location: York, NE
Elevation: 1647 ft
Nearby Weather Stations
Active Advisory: Wind Chill Advisory

Elev 1647 ft 40.86 °N, 97.61 °W | Updated 3 minutes ago

Light Snow
Light Snow
19.6 °F
Feels Like 14 °F
N
4.0
Wind Variable Wind from North
Gusts 7.0 mph

Today
High -- | Low -- °F
--% Chance of Precip.
Yesterday
High -- | Low -- °F
Precip. -- in
7:54 AM 5:10 PM
First Quarter, 58% visible
Pressure 30.22 in
Visibility 5.0 miles
Clouds Mostly Cloudy 800 ft
Overcast 6000 ft
Windchill 14 °F
Dew Point 18 °F
Humidity 92%
Rainfall 0.00 in
Snow Depth Not available.
UV 0 out of 12
Pollen .10 out of 12
Air Quality Not available.
Flu Activity Not available.
METAR KJYR 291115Z AUTO 04015KT 5SM -SN BKN008 OVC060 M07/M08 A3022 RMK AO2

More Conditions Fewer Conditions

Pressure 30.22 in
Visibility 5.0 miles
Clouds Mostly Cloudy 800 ft
Overcast 6000 ft
Windchill 14 °F
Dew Point 18 °F
Humidity 92%
Rainfall 0.00 in
Snow Depth Not available.
UV 0 out of 12
Pollen .10 out of 12
Air Quality Not available.
Flu Activity Not available.
METAR KJYR 291115Z AUTO 04015KT 5SM -SN BKN008 OVC060 M07/M08 A3022 RMK AO2

More Conditions Fewer Conditions

10-Day Weather Forecast

Almanac

Astronomy

Dec. 29, 2014 Rise Set
Actual Time
Civil Twilight
Nautical Twilight
Astronomical Twilight
Moon
Length of Visible Light
Length of Day
Tomorrow will be .
, % of the Moon is Illuminated

Today's Extremes

State Highs State Lows

Community

WunderPhotos

Upload Photos

1,781,570 photos uploaded!

WunderBlogs® & News

Nearby

Air Quality

  Air Quality AQ Index Pollutant
Not available.

Snow Depth

Station Depth Elevation

Earthquake Activity

City Distance Mag. Time & Date
Minimum magnitude displayed is 2.5.

Coastal Water Temperatures

Place Temperature

Nearby Weather Stations